createdAt,value
2019-04-01T00:01:57.936Z,99.90
2019-04-01T00:04:27.381Z,99.90
2019-04-01T00:06:56.893Z,99.90
2019-04-01T00:09:26.422Z,99.90
2019-04-01T00:11:55.927Z,99.90
2019-04-01T00:14:25.453Z,99.90
2019-04-01T00:16:54.946Z,99.90
2019-04-01T00:19:24.493Z,99.90
2019-04-01T00:21:53.983Z,99.90
2019-04-01T00:24:23.417Z,99.90
2019-04-01T00:26:53.052Z,99.90
2019-04-01T00:29:22.527Z,99.90
2019-04-01T00:31:52.044Z,99.90
2019-04-01T00:34:21.694Z,99.90
2019-04-01T00:36:51.243Z,99.90
2019-04-01T00:39:20.697Z,99.90
2019-04-01T00:42:18.269Z,99.90
2019-04-01T00:44:47.861Z,99.90
2019-04-01T00:47:17.328Z,99.90
2019-04-01T00:49:46.797Z,99.90
2019-04-01T00:52:16.244Z,99.90
2019-04-01T00:54:45.803Z,99.90
2019-04-01T00:57:15.325Z,99.90
2019-04-01T00:59:44.845Z,99.90
2019-04-01T01:02:14.424Z,99.90
2019-04-01T01:04:43.959Z,99.90
2019-04-01T01:07:13.438Z,99.90
2019-04-01T01:09:43.075Z,99.90
2019-04-01T01:12:12.571Z,99.90
2019-04-01T01:14:42.078Z,99.90
2019-04-01T01:17:11.744Z,99.90
2019-04-01T01:19:41.352Z,99.90
2019-04-01T01:22:11.013Z,99.90
2019-04-01T01:24:40.524Z,99.90
2019-04-01T01:27:09.986Z,99.90
2019-04-01T01:29:39.616Z,99.90
2019-04-01T01:32:09.068Z,99.90
2019-04-01T01:34:38.548Z,99.90
2019-04-01T01:37:08.515Z,99.90
2019-04-01T01:39:38.018Z,99.90
2019-04-01T01:42:07.615Z,99.90
2019-04-01T01:44:37.134Z,99.90
2019-04-01T01:47:06.637Z,99.90
2019-04-01T01:49:36.064Z,99.90
2019-04-01T01:52:05.605Z,99.90
2019-04-01T01:54:35.177Z,99.90
2019-04-01T01:57:04.685Z,99.90
2019-04-01T01:59:34.600Z,99.90
2019-04-01T02:02:04.215Z,99.90
2019-04-01T02:04:33.677Z,99.90
2019-04-01T02:07:03.414Z,99.90
2019-04-01T02:09:33.240Z,99.90
2019-04-01T02:12:02.810Z,99.90
2019-04-01T02:14:32.352Z,99.90
2019-04-01T02:17:01.862Z,99.90
2019-04-01T02:19:31.330Z,99.90
2019-04-01T02:22:01.071Z,99.90
2019-04-01T02:24:30.634Z,99.90
2019-04-01T02:27:00.178Z,99.90
2019-04-01T02:29:29.775Z,99.90
2019-04-01T02:31:59.321Z,99.90
2019-04-01T02:34:28.818Z,99.90
2019-04-01T02:36:58.413Z,99.90
2019-04-01T02:39:27.879Z,99.90
2019-04-01T02:41:57.406Z,99.90
2019-04-01T02:44:26.996Z,99.90
2019-04-01T02:46:56.517Z,99.90
2019-04-01T02:49:26.052Z,99.90
2019-04-01T02:51:55.946Z,99.90
2019-04-01T02:54:25.491Z,99.90
2019-04-01T02:56:55.626Z,99.90
2019-04-01T02:59:25.094Z,99.90
2019-04-01T03:01:54.628Z,99.90
2019-04-01T03:04:24.125Z,99.90
2019-04-01T03:06:53.776Z,99.90
2019-04-01T03:09:23.292Z,99.90
2019-04-01T03:11:52.755Z,99.90
2019-04-01T03:14:22.326Z,99.90
2019-04-01T03:16:51.842Z,99.90
2019-04-01T03:19:21.291Z,99.90
2019-04-01T03:21:50.710Z,99.90
2019-04-01T03:24:20.314Z,99.90
2019-04-01T03:26:49.754Z,99.90
2019-04-01T03:29:19.306Z,99.90
2019-04-01T03:31:48.774Z,99.90
2019-04-01T03:34:18.431Z,99.90
2019-04-01T03:36:47.937Z,99.90
2019-04-01T03:39:17.470Z,99.90
2019-04-01T03:41:47.097Z,99.90
2019-04-01T03:44:16.576Z,99.90
2019-04-01T03:46:46.114Z,99.90
2019-04-01T03:49:15.701Z,99.90
2019-04-01T03:51:45.188Z,99.90
2019-04-01T03:54:14.687Z,99.90
2019-04-01T03:56:44.296Z,99.90
2019-04-01T03:59:13.778Z,99.90
2019-04-01T04:01:43.921Z,99.90
2019-04-01T04:04:13.458Z,99.90
2019-04-01T04:06:43.046Z,99.90
2019-04-01T04:09:12.573Z,99.90
2019-04-01T04:11:42.538Z,99.90
2019-04-01T04:14:12.100Z,99.90
2019-04-01T04:16:41.623Z,99.90
2019-04-01T04:19:11.140Z,99.90
2019-04-01T04:21:40.638Z,99.90
2019-04-01T04:24:10.087Z,99.90
2019-04-01T04:26:39.796Z,99.90
2019-04-01T04:29:09.222Z,99.90
2019-04-01T04:31:38.645Z,99.90
2019-04-01T04:34:08.145Z,99.90
2019-04-01T04:36:37.766Z,99.90
2019-04-01T04:39:07.885Z,99.90
2019-04-01T04:41:37.425Z,99.90
2019-04-01T04:44:07.333Z,99.90
2019-04-01T04:46:36.874Z,99.90
2019-04-01T04:49:06.521Z,99.90
2019-04-01T04:51:36.046Z,99.90
2019-04-01T04:54:05.541Z,99.90
2019-04-01T04:56:35.040Z,99.90
2019-04-01T04:59:04.502Z,99.90
2019-04-01T05:01:34.104Z,99.90
2019-04-01T05:04:03.587Z,99.90
2019-04-01T05:06:33.221Z,99.90
2019-04-01T05:09:02.813Z,99.90
2019-04-01T05:11:32.369Z,99.90
2019-04-01T05:14:01.913Z,99.90
2019-04-01T05:16:31.475Z,99.90
2019-04-01T05:19:00.989Z,99.90
2019-04-01T05:21:30.892Z,99.90
2019-04-01T05:24:01.956Z,99.90
2019-04-01T05:26:33.982Z,99.90
2019-04-01T05:29:04.589Z,99.90
2019-04-01T05:31:35.811Z,99.90
2019-04-01T05:34:05.379Z,99.90
2019-04-01T05:36:34.873Z,99.90
2019-04-01T05:39:06.305Z,99.90
2019-04-01T05:41:36.027Z,99.90
2019-04-01T05:44:05.619Z,99.90
2019-04-01T05:46:35.398Z,99.90
2019-04-01T05:49:05.037Z,99.90
2019-04-01T05:51:34.769Z,99.90
2019-04-01T05:54:04.266Z,99.90
2019-04-01T05:56:33.758Z,99.90
2019-04-01T05:59:03.350Z,99.90
2019-04-01T06:01:37.457Z,99.90
2019-04-01T06:04:07.071Z,99.90
2019-04-01T06:06:36.616Z,99.90
2019-04-01T06:09:08.413Z,99.90
2019-04-01T06:11:39.164Z,99.90
2019-04-01T06:14:08.677Z,99.90
2019-04-01T06:16:38.753Z,99.90
2019-04-01T06:19:08.265Z,99.90
2019-04-01T06:21:37.795Z,99.90
2019-04-01T06:24:07.287Z,99.90
2019-04-01T06:26:36.743Z,99.90
2019-04-01T06:29:06.212Z,99.90
2019-04-01T06:31:35.702Z,99.90
2019-04-01T06:34:05.409Z,99.90
2019-04-01T06:36:34.860Z,99.90
2019-04-01T06:39:06.720Z,99.90
2019-04-01T06:41:36.468Z,99.90
2019-04-01T06:44:06.309Z,99.90
2019-04-01T06:46:35.720Z,99.90
2019-04-01T06:49:05.454Z,99.90
2019-04-01T06:51:34.868Z,99.90
2019-04-01T06:54:04.373Z,99.90
2019-04-01T06:56:33.977Z,99.90
2019-04-01T06:59:03.456Z,99.90
2019-04-01T07:01:33.032Z,99.90
2019-04-01T07:04:02.633Z,99.90
2019-04-01T07:06:32.156Z,99.90
2019-04-01T07:09:02.070Z,99.90
2019-04-01T07:11:31.758Z,99.90
2019-04-01T07:14:01.628Z,99.90
2019-04-01T07:16:31.221Z,99.90
2019-04-01T07:19:00.792Z,99.90
2019-04-01T07:21:30.280Z,99.90
2019-04-01T07:23:59.738Z,99.90
2019-04-01T07:26:29.377Z,99.90
2019-04-01T07:28:58.918Z,99.90
2019-04-01T07:31:28.352Z,99.90
2019-04-01T07:33:57.952Z,99.90
2019-04-01T07:36:27.560Z,99.90
2019-04-01T07:38:57.148Z,99.90
2019-04-01T07:41:38.180Z,99.90
2019-04-01T07:44:07.636Z,99.90
2019-04-01T07:46:36.992Z,99.90
2019-04-01T07:49:06.403Z,99.90
2019-04-01T07:51:38.454Z,99.90
2019-04-01T07:54:06.920Z,99.90
2019-04-01T07:56:36.444Z,99.90
2019-04-01T07:59:05.946Z,99.90
2019-04-01T08:01:35.300Z,99.90
2019-04-01T08:04:04.714Z,99.90
2019-04-01T08:06:34.152Z,99.90
2019-04-01T08:09:04.863Z,99.90
2019-04-01T08:11:34.307Z,99.90
2019-04-01T08:14:04.844Z,99.90
2019-04-01T08:16:34.406Z,99.90
2019-04-01T08:19:03.782Z,99.90
2019-04-01T08:21:33.753Z,99.90
2019-04-01T08:24:03.117Z,99.90
2019-04-01T08:26:32.629Z,99.90
2019-04-01T08:29:02.086Z,99.90
2019-04-01T08:31:31.653Z,99.70
2019-04-01T08:34:01.035Z,97.90
2019-04-01T08:36:30.864Z,99.40
2019-04-01T08:39:00.293Z,99.10
2019-04-01T08:41:29.627Z,97.70
2019-04-01T08:44:03.107Z,98.40
2019-04-01T08:46:30.852Z,97.90
2019-04-01T08:49:00.691Z,98.40
2019-04-01T08:51:30.409Z,98.60
2019-04-01T08:54:00.587Z,96.60
2019-04-01T08:56:30.026Z,95.60
2019-04-01T08:58:59.438Z,93.70
2019-04-01T09:01:35.236Z,92.80
2019-04-01T09:04:00.035Z,91.90
2019-04-01T09:06:31.320Z,91.40
2019-04-01T09:09:01.256Z,90.20
2019-04-01T09:11:30.869Z,87.90
2019-04-01T09:14:00.544Z,88.30
2019-04-01T09:16:30.564Z,90.80
2019-04-01T09:18:59.997Z,86.50
2019-04-01T09:21:29.617Z,87.20
2019-04-01T09:23:58.972Z,89.10
2019-04-01T09:26:28.298Z,90.80
2019-04-01T09:28:57.668Z,86.10
2019-04-01T09:31:27.006Z,87.00
2019-04-01T09:33:56.382Z,85.90
2019-04-01T09:36:26.071Z,90.30
2019-04-01T09:38:55.487Z,88.20
2019-04-01T09:41:24.849Z,85.20
2019-04-01T09:43:54.277Z,83.90
2019-04-01T09:46:23.984Z,83.30
2019-04-01T09:48:53.362Z,80.80
2019-04-01T09:51:22.726Z,82.50
2019-04-01T09:53:52.043Z,84.10
2019-04-01T09:56:21.395Z,86.10
2019-04-01T09:58:51.022Z,82.10
2019-04-01T10:01:20.455Z,83.00
2019-04-01T10:03:49.818Z,80.40
2019-04-01T10:06:19.205Z,80.70
2019-04-01T10:08:48.947Z,81.30
2019-04-01T10:11:18.349Z,83.20
2019-04-01T10:13:47.764Z,84.30
2019-04-01T10:16:17.170Z,83.90
2019-04-01T10:18:46.632Z,81.90
2019-04-01T10:21:16.024Z,82.20
2019-04-01T10:23:45.397Z,81.10
2019-04-01T10:26:14.816Z,81.20
2019-04-01T10:28:44.226Z,81.50
2019-04-01T10:31:13.756Z,81.90
2019-04-01T10:33:43.125Z,81.30
2019-04-01T10:36:12.522Z,79.90
2019-04-01T10:38:41.906Z,82.30
2019-04-01T10:41:11.588Z,79.30
2019-04-01T10:43:40.954Z,79.30
2019-04-01T10:46:12.175Z,81.10
2019-04-01T10:48:41.508Z,82.30
2019-04-01T10:51:10.877Z,83.40
2019-04-01T10:53:40.510Z,81.30
2019-04-01T10:56:10.015Z,81.80
2019-04-01T10:58:39.449Z,81.80
2019-04-01T11:01:08.916Z,83.50
2019-04-01T11:03:38.422Z,81.80
2019-04-01T11:06:07.908Z,83.00
2019-04-01T11:08:37.501Z,80.80
2019-04-01T11:11:06.998Z,82.10
2019-04-01T11:13:36.405Z,83.00
2019-04-01T11:16:05.885Z,80.90
2019-04-01T11:18:35.301Z,82.50
2019-04-01T11:21:05.390Z,82.50
2019-04-01T11:23:35.411Z,84.00
2019-04-01T11:26:04.891Z,84.00
2019-04-01T11:28:34.768Z,82.90
2019-04-01T11:31:04.787Z,82.20
2019-04-01T11:33:34.305Z,82.00
2019-04-01T11:36:03.779Z,82.40
2019-04-01T11:38:33.381Z,83.60
2019-04-01T11:41:02.843Z,81.10
2019-04-01T11:43:35.365Z,79.40
2019-04-01T11:46:03.417Z,80.90
2019-04-01T11:48:32.921Z,82.10
2019-04-01T11:51:02.587Z,82.30
2019-04-01T11:53:32.088Z,82.60
2019-04-01T11:56:01.489Z,82.20
2019-04-01T11:58:30.994Z,81.40
2019-04-01T12:01:00.526Z,82.10
2019-04-01T12:03:29.905Z,80.90
2019-04-01T12:05:59.337Z,82.40
2019-04-01T12:08:29.754Z,83.10
2019-04-01T12:11:00.056Z,83.50
2019-04-01T12:13:29.452Z,81.70
2019-04-01T12:15:58.942Z,81.80
2019-04-01T12:18:28.332Z,81.40
2019-04-01T12:20:57.746Z,80.20
2019-04-01T12:23:27.326Z,80.70
2019-04-01T12:25:56.750Z,79.80
2019-04-01T12:28:26.128Z,80.10
2019-04-01T12:30:55.517Z,80.90
2019-04-01T12:33:26.301Z,80.40
2019-04-01T12:35:56.240Z,82.00
2019-04-01T12:38:25.641Z,81.80
2019-04-01T12:40:55.054Z,80.60
2019-04-01T12:43:24.423Z,80.50
2019-04-01T12:45:53.891Z,80.30
2019-04-01T12:48:25.425Z,80.10
2019-04-01T12:50:54.577Z,81.20
2019-04-01T12:53:23.964Z,81.10
2019-04-01T12:55:53.373Z,80.90
2019-04-01T12:58:25.179Z,80.60
2019-04-01T13:00:53.860Z,80.60
2019-04-01T13:03:23.417Z,82.60
2019-04-01T13:05:54.336Z,81.80
2019-04-01T13:08:24.239Z,81.50
2019-04-01T13:10:56.476Z,82.60
2019-04-01T13:13:25.379Z,81.00
2019-04-01T13:15:54.827Z,81.30
2019-04-01T13:18:24.186Z,81.60
2019-04-01T13:20:53.727Z,82.20
2019-04-01T13:23:23.259Z,82.40
2019-04-01T13:25:52.596Z,82.40
2019-04-01T13:28:21.973Z,83.80
2019-04-01T13:30:51.319Z,84.00
2019-04-01T13:33:20.747Z,84.60
2019-04-01T13:35:50.282Z,82.50
2019-04-01T13:38:19.665Z,81.70
2019-04-01T13:40:49.019Z,80.50
2019-04-01T13:43:18.428Z,78.20
2019-04-01T13:45:47.826Z,78.70
2019-04-01T13:48:17.428Z,77.40
2019-04-01T13:50:46.826Z,75.90
2019-04-01T13:53:16.294Z,76.20
2019-04-01T13:55:45.676Z,74.20
2019-04-01T13:58:17.588Z,71.40
2019-04-01T14:00:46.383Z,71.40
2019-04-01T14:03:15.801Z,73.50
2019-04-01T14:05:45.158Z,71.10
2019-04-01T14:08:14.574Z,71.50
2019-04-01T14:10:44.080Z,72.80
2019-04-01T14:13:13.558Z,75.50
2019-04-01T14:15:42.928Z,75.00
2019-04-01T14:18:12.344Z,73.40
2019-04-01T14:20:42.041Z,73.20
2019-04-01T14:23:11.416Z,73.20
2019-04-01T14:25:40.876Z,72.30
2019-04-01T14:28:10.283Z,71.60
2019-04-01T14:30:39.888Z,70.80
2019-04-01T14:33:09.250Z,70.30
2019-04-01T14:35:38.620Z,71.40
2019-04-01T14:38:25.684Z,72.80
2019-04-01T14:40:58.039Z,70.50
2019-04-01T14:43:26.216Z,70.80
2019-04-01T14:45:55.810Z,74.40
2019-04-01T14:48:25.203Z,70.90
2019-04-01T14:50:54.600Z,72.60
2019-04-01T14:53:23.979Z,73.40
2019-04-01T14:55:53.600Z,76.10
2019-04-01T14:58:23.180Z,75.20
2019-04-01T15:00:53.379Z,75.20
2019-04-01T15:03:22.820Z,74.70
2019-04-01T15:05:52.526Z,76.70
2019-04-01T15:08:21.907Z,77.30
2019-04-01T15:10:51.344Z,77.10
2019-04-01T15:13:20.832Z,78.00
2019-04-01T15:15:50.293Z,80.10
2019-04-01T15:18:19.684Z,79.60
2019-04-01T15:20:49.062Z,80.00
2019-04-01T15:23:19.509Z,79.40
2019-04-01T15:25:50.214Z,79.60
2019-04-01T15:28:20.706Z,82.00
2019-04-01T15:30:50.088Z,80.20
2019-04-01T15:33:21.154Z,79.70
2019-04-01T15:35:51.014Z,78.60
2019-04-01T15:38:22.086Z,79.10
2019-04-01T15:40:57.980Z,79.80
2019-04-01T15:43:43.572Z,79.80
2019-04-01T15:46:13.157Z,80.20
2019-04-01T15:48:42.671Z,78.20
2019-04-01T15:51:16.208Z,79.30
2019-04-01T15:53:45.874Z,78.40
2019-04-01T15:56:15.384Z,80.50
2019-04-01T15:58:45.144Z,82.30
2019-04-01T16:01:14.723Z,83.20
2019-04-01T16:03:44.519Z,83.90
2019-04-01T16:06:14.061Z,82.00
2019-04-01T16:08:43.754Z,83.50
2019-04-01T16:11:13.358Z,81.80
2019-04-01T16:14:36.653Z,83.00
2019-04-01T16:17:06.706Z,82.20
2019-04-01T16:19:36.630Z,81.10
2019-04-01T16:22:06.146Z,81.60
2019-04-01T16:25:13.206Z,82.00
2019-04-01T16:27:43.049Z,84.00
2019-04-01T16:30:13.173Z,85.50
2019-04-01T16:32:42.800Z,84.40
2019-04-01T16:35:30.167Z,85.20
2019-04-01T16:37:59.848Z,85.60
2019-04-01T16:40:29.834Z,87.00
2019-04-01T16:42:59.346Z,88.40
2019-04-01T16:45:28.896Z,89.00
2019-04-01T16:47:58.472Z,89.70
2019-04-01T16:50:30.075Z,90.20
2019-04-01T16:52:59.817Z,90.20
2019-04-01T16:55:29.440Z,90.30
2019-04-01T16:57:59.074Z,90.30
2019-04-01T17:00:28.583Z,91.00
2019-04-01T17:02:58.093Z,91.10
2019-04-01T17:05:33.111Z,92.00
2019-04-01T17:08:03.590Z,92.70
2019-04-01T17:10:33.504Z,93.50
2019-04-01T17:13:03.551Z,94.50
2019-04-01T17:15:33.429Z,95.30
2019-04-01T17:18:02.864Z,96.60
2019-04-01T17:20:32.394Z,97.70
2019-04-01T17:23:02.775Z,98.90
2019-04-01T17:25:32.427Z,99.60
2019-04-01T17:28:02.266Z,99.90
2019-04-01T17:30:32.034Z,99.90
2019-04-01T17:33:01.533Z,99.90
2019-04-01T17:35:31.203Z,99.90
2019-04-01T17:38:00.765Z,99.90
2019-04-01T17:40:30.720Z,99.90
2019-04-01T17:43:00.303Z,99.90
2019-04-01T17:45:40.756Z,99.90
2019-04-01T17:48:10.773Z,99.90
2019-04-01T17:50:41.345Z,99.90
2019-04-01T17:53:11.784Z,99.90
2019-04-01T17:55:41.553Z,99.90
2019-04-01T17:58:11.266Z,99.90
2019-04-01T18:00:44.683Z,99.90
2019-04-01T18:03:14.343Z,99.90
2019-04-01T18:05:44.166Z,99.90
2019-04-01T18:08:13.860Z,99.90
2019-04-01T18:10:43.485Z,99.90
2019-04-01T18:13:13.697Z,99.90
2019-04-01T18:15:44.245Z,99.90
2019-04-01T18:18:26.107Z,99.90
2019-04-01T18:20:46.559Z,99.90
2019-04-01T18:23:16.198Z,99.90
2019-04-01T18:25:45.861Z,99.90
2019-04-01T18:28:15.389Z,99.90
2019-04-01T18:30:45.287Z,99.90
2019-04-01T18:33:14.891Z,99.90
2019-04-01T18:35:45.052Z,99.90
2019-04-01T18:38:14.880Z,99.90
2019-04-01T18:40:44.379Z,99.90
2019-04-01T18:43:14.098Z,99.90
2019-04-01T18:45:43.575Z,99.90
2019-04-01T18:48:14.766Z,99.90
2019-04-01T18:50:44.319Z,99.90
2019-04-01T18:53:14.176Z,99.90
2019-04-01T18:55:43.776Z,99.90
2019-04-01T18:58:13.529Z,99.90
2019-04-01T19:01:04.294Z,99.90
2019-04-01T19:03:45.546Z,99.90
2019-04-01T19:06:14.451Z,99.90
2019-04-01T19:08:44.054Z,99.90
2019-04-01T19:11:14.010Z,99.90
2019-04-01T19:13:43.689Z,99.90
2019-04-01T19:16:16.281Z,99.90
2019-04-01T19:18:44.541Z,99.90
2019-04-01T19:21:14.343Z,99.90
2019-04-01T19:23:43.973Z,99.90
2019-04-01T19:26:13.700Z,99.90
2019-04-01T19:28:43.405Z,99.90
2019-04-01T19:31:12.959Z,99.90
2019-04-01T19:33:42.723Z,99.90
2019-04-01T19:36:12.392Z,99.90
2019-04-01T19:38:41.984Z,99.90
2019-04-01T19:41:11.589Z,99.90
2019-04-01T19:43:41.256Z,99.90
2019-04-01T19:46:10.924Z,99.90
2019-04-01T19:48:40.698Z,99.90
2019-04-01T19:51:10.200Z,99.90
2019-04-01T19:53:39.796Z,99.90
2019-04-01T19:56:09.527Z,99.90
2019-04-01T19:58:39.129Z,99.90
2019-04-01T20:01:08.727Z,99.90
2019-04-01T20:03:39.507Z,99.90
2019-04-01T20:06:09.285Z,99.90
2019-04-01T20:08:38.823Z,99.90
2019-04-01T20:11:08.363Z,99.90
2019-04-01T20:13:39.299Z,99.90
2019-04-01T20:16:10.297Z,99.90
2019-04-01T20:18:40.277Z,99.90
2019-04-01T20:21:10.834Z,99.90
2019-04-01T20:23:40.933Z,99.90
2019-04-01T20:26:10.672Z,99.90
2019-04-01T20:28:40.260Z,99.90
2019-04-01T20:31:10.014Z,99.90
2019-04-01T20:33:40.974Z,99.90
2019-04-01T20:36:10.825Z,99.90
2019-04-01T20:38:40.334Z,99.90
2019-04-01T20:41:10.333Z,99.90
2019-04-01T20:43:39.937Z,99.90
2019-04-01T20:46:10.134Z,99.90
2019-04-01T20:48:40.642Z,99.90
2019-04-01T20:51:10.136Z,99.90
2019-04-01T20:53:39.779Z,99.90
2019-04-01T20:56:09.363Z,99.90
2019-04-01T20:58:38.876Z,99.90
2019-04-01T21:01:08.345Z,99.90
2019-04-01T21:03:38.040Z,99.90
2019-04-01T21:06:07.490Z,99.90
2019-04-01T21:08:38.091Z,99.90
2019-04-01T21:11:07.725Z,99.90
2019-04-01T21:13:37.341Z,99.90
2019-04-01T21:16:06.905Z,99.90
2019-04-01T21:18:36.480Z,99.90
2019-04-01T21:21:06.522Z,99.90
2019-04-01T21:23:36.142Z,99.90
2019-04-01T21:26:06.084Z,99.90
2019-04-01T21:28:36.061Z,99.90
2019-04-01T21:31:05.518Z,99.90
2019-04-01T21:33:35.049Z,99.90
2019-04-01T21:36:04.939Z,99.90
2019-04-01T21:38:34.429Z,99.90
2019-04-01T21:41:04.074Z,99.90
2019-04-01T21:43:33.541Z,99.90
2019-04-01T21:46:02.990Z,99.90
2019-04-01T21:48:32.703Z,99.90
2019-04-01T21:51:03.954Z,99.90
2019-04-01T21:53:33.450Z,99.90
2019-04-01T21:56:02.917Z,99.90
2019-04-01T21:58:32.543Z,99.90
2019-04-01T22:01:02.209Z,99.90
2019-04-01T22:03:32.046Z,99.90
2019-04-01T22:06:01.488Z,99.90
2019-04-01T22:08:31.341Z,99.90
2019-04-01T22:11:01.211Z,99.90
2019-04-01T22:13:31.143Z,99.90
2019-04-01T22:16:00.914Z,99.90
2019-04-01T22:18:32.821Z,99.90
2019-04-01T22:21:01.568Z,99.90
2019-04-01T22:23:31.064Z,99.90
2019-04-01T22:26:00.916Z,99.90
2019-04-01T22:28:30.401Z,99.90
2019-04-01T22:30:59.877Z,99.90
2019-04-01T22:33:29.398Z,99.90
2019-04-01T22:35:58.917Z,99.90
2019-04-01T22:38:28.357Z,99.90
2019-04-01T22:41:00.056Z,99.90
2019-04-01T22:43:29.434Z,99.90
2019-04-01T22:45:58.903Z,99.90
2019-04-01T22:48:28.567Z,99.90
2019-04-01T22:50:58.053Z,99.90
2019-04-01T22:53:27.541Z,99.90
2019-04-01T22:55:57.635Z,99.90
2019-04-01T22:58:27.636Z,99.90
2019-04-01T23:00:57.108Z,99.90
2019-04-01T23:03:26.540Z,99.90
2019-04-01T23:05:56.082Z,99.90
2019-04-01T23:08:25.601Z,99.90
2019-04-01T23:10:56.405Z,99.90
2019-04-01T23:13:25.973Z,99.90
2019-04-01T23:15:55.397Z,99.90
2019-04-01T23:18:25.173Z,99.90
2019-04-01T23:20:54.657Z,99.90
2019-04-01T23:23:24.126Z,99.90
2019-04-01T23:25:55.103Z,99.90
2019-04-01T23:28:25.050Z,99.90
2019-04-01T23:30:54.501Z,99.90
2019-04-01T23:33:24.410Z,99.90
2019-04-01T23:35:53.815Z,99.90
2019-04-01T23:38:23.301Z,99.90
2019-04-01T23:40:52.793Z,99.90
2019-04-01T23:43:22.349Z,99.90
2019-04-01T23:45:51.823Z,99.90
2019-04-01T23:48:21.325Z,99.90
2019-04-01T23:50:50.895Z,99.90
2019-04-01T23:53:20.413Z,99.90
2019-04-01T23:55:50.394Z,99.90
2019-04-01T23:58:19.856Z,99.90
